createdAt,value
2018-08-22T00:02:23.644Z,71.00
2018-08-22T00:04:51.750Z,70.70
2018-08-22T00:07:19.888Z,70.40
2018-08-22T00:09:48.011Z,70.20
2018-08-22T00:12:16.111Z,69.90
2018-08-22T00:14:44.198Z,70.00
2018-08-22T00:17:12.277Z,69.90
2018-08-22T00:19:40.542Z,69.80
2018-08-22T00:22:08.676Z,69.80
2018-08-22T00:24:36.759Z,69.70
2018-08-22T00:27:04.983Z,70.00
2018-08-22T00:29:33.123Z,70.00
2018-08-22T00:32:01.220Z,69.80
2018-08-22T00:34:29.320Z,70.50
2018-08-22T00:36:57.418Z,70.30
2018-08-22T00:39:25.506Z,71.50
2018-08-22T00:41:53.594Z,71.30
2018-08-22T00:44:21.741Z,71.20
2018-08-22T00:46:49.849Z,70.90
2018-08-22T00:49:17.915Z,70.70
2018-08-22T00:51:46.168Z,70.60
2018-08-22T00:54:14.287Z,70.40
2018-08-22T00:56:42.386Z,70.50
2018-08-22T00:59:10.478Z,70.50
2018-08-22T01:01:38.585Z,70.30
2018-08-22T01:04:06.677Z,69.90
2018-08-22T01:06:34.778Z,69.90
2018-08-22T01:09:02.884Z,70.00
2018-08-22T01:11:30.979Z,69.80
2018-08-22T01:13:59.069Z,70.10
2018-08-22T01:16:27.162Z,70.80
2018-08-22T01:18:55.254Z,70.70
2018-08-22T01:21:23.345Z,70.70
2018-08-22T01:23:51.448Z,70.70
2018-08-22T01:26:19.550Z,70.60
2018-08-22T01:28:47.686Z,71.60
2018-08-22T01:31:15.805Z,70.80
2018-08-22T01:33:43.920Z,71.00
2018-08-22T01:36:12.041Z,70.90
2018-08-22T01:38:40.151Z,71.10
2018-08-22T01:41:08.313Z,71.10
2018-08-22T01:43:36.411Z,71.00
2018-08-22T01:46:04.657Z,71.10
2018-08-22T01:48:32.743Z,71.00
2018-08-22T01:51:00.836Z,70.80
2018-08-22T01:53:28.934Z,70.90
2018-08-22T01:55:57.054Z,70.90
2018-08-22T01:58:25.178Z,72.10
2018-08-22T02:00:53.308Z,72.10
2018-08-22T02:03:21.409Z,73.50
2018-08-22T02:05:49.545Z,73.10
2018-08-22T02:08:17.634Z,72.80
2018-08-22T02:10:45.742Z,72.30
2018-08-22T02:13:13.867Z,72.10
2018-08-22T02:15:41.965Z,72.00
2018-08-22T02:18:10.071Z,71.80
2018-08-22T02:20:38.255Z,71.70
2018-08-22T02:23:06.466Z,71.70
2018-08-22T02:25:34.590Z,71.70
2018-08-22T02:28:02.702Z,71.60
2018-08-22T02:30:30.779Z,71.60
2018-08-22T02:32:58.859Z,71.80
2018-08-22T02:35:26.954Z,71.70
2018-08-22T02:37:55.074Z,71.70
2018-08-22T02:40:23.236Z,72.80
2018-08-22T02:42:51.336Z,72.60
2018-08-22T02:45:19.430Z,74.10
2018-08-22T02:47:47.540Z,73.80
2018-08-22T02:50:15.610Z,73.30
2018-08-22T02:52:43.800Z,73.20
2018-08-22T02:55:11.905Z,72.90
2018-08-22T02:57:39.977Z,72.80
2018-08-22T03:00:08.066Z,73.10
2018-08-22T03:02:36.174Z,73.00
2018-08-22T03:05:04.335Z,72.90
2018-08-22T03:07:32.415Z,72.80
2018-08-22T03:10:00.528Z,73.00
2018-08-22T03:12:28.639Z,73.10
2018-08-22T03:14:56.807Z,73.30
2018-08-22T03:17:24.910Z,73.40
2018-08-22T03:19:52.979Z,73.50
2018-08-22T03:22:21.088Z,74.60
2018-08-22T03:24:49.180Z,74.00
2018-08-22T03:27:17.273Z,74.10
2018-08-22T03:29:45.369Z,74.20
2018-08-22T03:32:13.468Z,74.30
2018-08-22T03:34:41.651Z,74.20
2018-08-22T03:37:09.739Z,74.10
2018-08-22T03:39:37.852Z,73.90
2018-08-22T03:42:05.988Z,73.80
2018-08-22T03:44:34.067Z,73.80
2018-08-22T03:47:02.143Z,73.90
2018-08-22T03:49:30.263Z,74.00
2018-08-22T03:51:58.371Z,73.80
2018-08-22T03:54:26.442Z,73.80
2018-08-22T03:56:54.523Z,73.90
2018-08-22T03:59:22.642Z,74.10
2018-08-22T04:01:50.712Z,74.20
2018-08-22T04:04:18.921Z,73.90
2018-08-22T04:06:47.027Z,74.10
2018-08-22T04:09:15.107Z,74.30
2018-08-22T04:11:43.194Z,74.20
2018-08-22T04:14:11.300Z,74.00
2018-08-22T04:16:39.395Z,74.10
2018-08-22T04:19:07.475Z,74.10
2018-08-22T04:21:35.611Z,74.20
2018-08-22T04:24:03.727Z,75.10
2018-08-22T04:26:31.819Z,74.10
2018-08-22T04:28:59.967Z,75.00
2018-08-22T04:31:28.067Z,74.20
2018-08-22T04:33:56.140Z,73.70
2018-08-22T04:36:24.368Z,74.40
2018-08-22T04:38:53.514Z,74.50
2018-08-22T04:41:21.603Z,75.30
2018-08-22T04:43:49.752Z,74.60
2018-08-22T04:46:17.928Z,74.70
2018-08-22T04:48:46.058Z,74.70
2018-08-22T04:51:14.163Z,74.70
2018-08-22T04:53:42.355Z,75.30
2018-08-22T04:56:10.565Z,74.50
2018-08-22T04:58:38.692Z,74.70
2018-08-22T05:01:06.827Z,74.50
2018-08-22T05:03:34.979Z,74.80
2018-08-22T05:06:03.181Z,74.70
2018-08-22T05:08:31.302Z,74.70
2018-08-22T05:10:59.415Z,75.00
2018-08-22T05:13:27.521Z,74.90
2018-08-22T05:15:55.607Z,75.00
2018-08-22T05:18:23.735Z,75.20
2018-08-22T05:20:51.852Z,75.30
2018-08-22T05:23:19.968Z,75.30
2018-08-22T05:25:48.098Z,75.30
2018-08-22T05:28:16.185Z,75.60
2018-08-22T05:30:44.275Z,76.60
2018-08-22T05:33:12.395Z,76.50
2018-08-22T05:35:40.489Z,78.50
2018-08-22T05:38:08.659Z,76.40
2018-08-22T05:40:36.855Z,76.50
2018-08-22T05:43:04.969Z,76.50
2018-08-22T05:45:33.045Z,76.60
2018-08-22T05:48:01.135Z,76.70
2018-08-22T05:50:29.239Z,77.00
2018-08-22T05:52:57.351Z,77.30
2018-08-22T05:55:25.456Z,77.50
2018-08-22T05:57:53.571Z,77.70
2018-08-22T06:00:21.699Z,78.00
2018-08-22T06:02:49.804Z,78.20
2018-08-22T06:05:17.903Z,78.40
2018-08-22T06:07:46.005Z,78.60
2018-08-22T06:10:14.111Z,78.40
2018-08-22T06:12:42.251Z,78.60
2018-08-22T06:15:10.348Z,78.50
2018-08-22T06:17:38.451Z,81.30
2018-08-22T06:20:06.564Z,80.80
2018-08-22T06:22:34.664Z,80.50
2018-08-22T06:25:02.883Z,80.40
2018-08-22T06:27:30.973Z,80.00
2018-08-22T06:29:59.068Z,79.70
2018-08-22T06:32:27.216Z,79.90
2018-08-22T06:34:55.315Z,80.20
2018-08-22T06:37:23.414Z,79.30
2018-08-22T06:39:51.494Z,79.40
2018-08-22T06:42:19.597Z,79.90
2018-08-22T06:44:47.704Z,80.40
2018-08-22T06:47:15.808Z,80.80
2018-08-22T06:49:43.974Z,80.50
2018-08-22T06:52:12.113Z,81.20
2018-08-22T06:54:40.199Z,80.80
2018-08-22T06:57:08.344Z,81.50
2018-08-22T06:59:36.463Z,81.50
2018-08-22T07:02:04.732Z,82.10
2018-08-22T07:04:32.825Z,83.50
2018-08-22T07:07:01.013Z,82.70
2018-08-22T07:09:29.278Z,83.00
2018-08-22T07:11:57.415Z,82.70
2018-08-22T07:14:25.559Z,82.50
2018-08-22T07:16:53.620Z,82.00
2018-08-22T07:19:21.731Z,82.30
2018-08-22T07:21:52.594Z,82.30
2018-08-22T07:24:20.751Z,82.10
2018-08-22T07:26:48.868Z,81.60
2018-08-22T07:29:16.961Z,82.10
2018-08-22T07:31:45.082Z,82.00
2018-08-22T07:34:13.187Z,81.50
2018-08-22T07:36:41.295Z,81.20
2018-08-22T07:39:11.269Z,81.10
2018-08-22T07:41:39.577Z,81.00
2018-08-22T07:44:08.173Z,81.00
2018-08-22T07:46:36.364Z,81.00
2018-08-22T07:49:04.523Z,81.00
2018-08-22T07:51:32.619Z,81.20
2018-08-22T07:54:00.704Z,81.30
2018-08-22T07:56:28.812Z,80.60
2018-08-22T07:59:08.534Z,79.30
2018-08-22T08:01:37.484Z,79.00
2018-08-22T08:04:06.031Z,78.00
2018-08-22T08:06:34.243Z,77.30
2018-08-22T08:09:02.324Z,77.00
2018-08-22T08:11:30.443Z,76.50
2018-08-22T08:13:58.550Z,76.20
2018-08-22T08:16:26.658Z,75.00
2018-08-22T08:18:54.745Z,74.00
2018-08-22T08:21:22.823Z,74.80
2018-08-22T08:23:50.911Z,73.80
2018-08-22T08:26:19.010Z,73.60
2018-08-22T08:28:47.119Z,73.80
2018-08-22T08:31:15.256Z,73.00
2018-08-22T08:33:43.668Z,72.90
2018-08-22T08:36:12.093Z,73.20
2018-08-22T08:38:40.272Z,73.50
2018-08-22T08:41:08.587Z,72.90
2018-08-22T08:43:36.663Z,73.20
2018-08-22T08:46:05.132Z,72.50
2018-08-22T08:48:33.332Z,72.00
2018-08-22T08:51:01.411Z,71.60
2018-08-22T08:53:29.755Z,71.80
2018-08-22T08:55:59.207Z,71.70
2018-08-22T08:58:27.307Z,71.50
2018-08-22T09:00:55.418Z,71.80
2018-08-22T09:03:23.555Z,72.00
2018-08-22T09:05:51.647Z,71.70
2018-08-22T09:08:19.750Z,71.50
2018-08-22T09:10:47.959Z,70.70
2018-08-22T09:13:15.995Z,70.40
2018-08-22T09:15:44.090Z,70.30
2018-08-22T09:18:12.159Z,70.00
2018-08-22T09:20:40.874Z,69.50
2018-08-22T09:23:11.460Z,69.80
2018-08-22T09:25:39.559Z,68.90
2018-08-22T09:28:07.705Z,69.20
2018-08-22T09:30:35.775Z,69.00
2018-08-22T09:33:03.871Z,68.70
2018-08-22T09:35:31.996Z,69.00
2018-08-22T09:38:00.071Z,68.60
2018-08-22T09:40:28.214Z,68.20
2018-08-22T09:42:56.285Z,68.70
2018-08-22T09:45:24.384Z,68.20
2018-08-22T09:47:52.475Z,67.10
2018-08-22T09:50:20.610Z,67.40
2018-08-22T09:52:48.750Z,67.00
2018-08-22T09:55:16.849Z,67.10
2018-08-22T09:57:44.954Z,66.80
2018-08-22T10:00:19.965Z,66.30
2018-08-22T10:02:48.079Z,65.60
2018-08-22T10:05:16.176Z,65.30
2018-08-22T10:07:44.279Z,65.50
2018-08-22T10:10:12.428Z,64.60
2018-08-22T10:12:40.501Z,64.20
2018-08-22T10:15:08.603Z,64.30
2018-08-22T10:17:36.722Z,64.00
2018-08-22T10:20:05.126Z,63.50
2018-08-22T10:22:33.243Z,63.20
2018-08-22T10:25:01.344Z,62.30
2018-08-22T10:27:29.444Z,62.10
2018-08-22T10:29:57.539Z,61.90
2018-08-22T10:32:25.674Z,61.90
2018-08-22T10:34:53.803Z,61.60
2018-08-22T10:37:21.905Z,60.80
2018-08-22T10:39:50.011Z,60.60
2018-08-22T10:42:18.126Z,60.10
2018-08-22T10:44:46.231Z,60.90
2018-08-22T10:47:15.352Z,60.70
2018-08-22T10:49:43.467Z,61.70
2018-08-22T10:52:11.699Z,61.20
2018-08-22T10:54:39.819Z,61.00
2018-08-22T10:57:08.059Z,60.90
2018-08-22T10:59:36.165Z,61.30
2018-08-22T11:02:04.274Z,60.40
2018-08-22T11:04:32.379Z,60.60
2018-08-22T11:07:00.482Z,59.10
2018-08-22T11:09:28.584Z,58.70
2018-08-22T11:11:56.717Z,58.80
2018-08-22T11:14:24.850Z,59.20
2018-08-22T11:16:53.007Z,59.10
2018-08-22T11:19:21.136Z,59.20
2018-08-22T11:22:00.616Z,59.00
2018-08-22T11:24:40.251Z,59.00
2018-08-22T11:27:19.862Z,59.00
2018-08-22T11:29:59.465Z,58.60
2018-08-22T11:32:39.067Z,59.30
2018-08-22T11:35:06.219Z,59.50
2018-08-22T11:37:34.357Z,59.20
2018-08-22T11:40:02.505Z,58.30
2018-08-22T11:42:30.602Z,58.10
2018-08-22T11:44:58.707Z,57.90
2018-08-22T11:47:26.933Z,56.90
2018-08-22T11:49:55.033Z,56.80
2018-08-22T11:52:23.128Z,56.70
2018-08-22T11:54:51.242Z,56.40
2018-08-22T11:57:19.335Z,56.50
2018-08-22T11:59:47.427Z,56.50
2018-08-22T12:02:15.519Z,56.70
2018-08-22T12:04:43.599Z,56.80
2018-08-22T12:07:11.737Z,56.10
2018-08-22T12:09:39.835Z,56.50
2018-08-22T12:12:08.027Z,56.70
2018-08-22T12:14:36.115Z,56.50
2018-08-22T12:17:04.226Z,56.70
2018-08-22T12:19:32.321Z,56.70
2018-08-22T12:22:00.417Z,57.00
2018-08-22T12:24:28.550Z,56.60
2018-08-22T12:26:56.658Z,56.50
2018-08-22T12:29:24.739Z,56.60
2018-08-22T12:31:52.839Z,56.40
2018-08-22T12:34:20.946Z,56.00
2018-08-22T12:36:49.108Z,55.40
2018-08-22T12:39:17.201Z,55.90
2018-08-22T12:41:45.303Z,54.70
2018-08-22T12:44:13.392Z,55.40
2018-08-22T12:46:41.528Z,55.80
2018-08-22T12:49:09.617Z,55.80
2018-08-22T12:51:37.694Z,55.80
2018-08-22T12:54:05.812Z,55.30
2018-08-22T12:56:33.895Z,55.20
2018-08-22T12:59:02.034Z,55.50
2018-08-22T13:01:30.178Z,55.80
2018-08-22T13:03:58.273Z,54.50
2018-08-22T13:06:26.435Z,54.80
2018-08-22T13:08:54.559Z,54.40
2018-08-22T13:11:22.662Z,54.80
2018-08-22T13:13:50.829Z,55.20
2018-08-22T13:16:18.939Z,53.90
2018-08-22T13:18:47.082Z,54.00
2018-08-22T13:21:15.183Z,53.40
2018-08-22T13:23:43.318Z,54.20
2018-08-22T13:26:11.499Z,54.20
2018-08-22T13:28:39.598Z,53.90
2018-08-22T13:31:07.788Z,53.70
2018-08-22T13:33:36.179Z,53.10
2018-08-22T13:36:04.306Z,53.40
2018-08-22T13:38:32.403Z,54.00
2018-08-22T13:41:00.515Z,53.60
2018-08-22T13:43:28.624Z,54.10
2018-08-22T13:45:56.708Z,53.20
2018-08-22T13:48:24.813Z,53.60
2018-08-22T13:50:52.952Z,53.70
2018-08-22T13:53:20.976Z,53.40
2018-08-22T13:55:49.069Z,53.50
2018-08-22T13:58:17.196Z,53.10
2018-08-22T14:00:45.331Z,53.60
2018-08-22T14:03:13.416Z,53.40
2018-08-22T14:05:41.517Z,54.00
2018-08-22T14:08:09.615Z,54.10
2018-08-22T14:10:37.751Z,53.00
2018-08-22T14:13:06.007Z,52.40
2018-08-22T14:15:34.120Z,52.60
2018-08-22T14:18:02.246Z,52.80
2018-08-22T14:20:30.412Z,53.60
2018-08-22T14:22:58.627Z,52.60
2018-08-22T14:25:26.804Z,52.20
2018-08-22T14:27:54.911Z,52.20
2018-08-22T14:30:23.037Z,52.20
2018-08-22T14:32:51.172Z,52.10
2018-08-22T14:35:19.336Z,51.70
2018-08-22T14:37:47.497Z,51.70
2018-08-22T14:40:15.603Z,51.50
2018-08-22T14:42:43.775Z,51.60
2018-08-22T14:45:11.878Z,52.20
2018-08-22T14:47:39.975Z,52.10
2018-08-22T14:50:08.447Z,51.70
2018-08-22T14:52:37.140Z,51.40
2018-08-22T14:55:05.263Z,50.80
2018-08-22T14:57:33.383Z,50.70
2018-08-22T15:00:02.169Z,50.50
2018-08-22T15:02:30.450Z,50.70
2018-08-22T15:04:58.626Z,50.40
2018-08-22T15:07:26.788Z,49.70
2018-08-22T15:09:54.867Z,49.10
2018-08-22T15:12:22.953Z,48.70
2018-08-22T15:14:51.060Z,49.30
2018-08-22T15:17:19.227Z,49.70
2018-08-22T15:19:47.339Z,50.00
2018-08-22T15:22:15.485Z,50.10
2018-08-22T15:24:43.710Z,50.00
2018-08-22T15:27:11.880Z,49.60
2018-08-22T15:29:39.975Z,49.60
2018-08-22T15:32:08.063Z,49.20
2018-08-22T15:34:48.687Z,49.00
2018-08-22T15:37:16.951Z,48.90
2018-08-22T15:39:45.112Z,48.40
2018-08-22T15:42:13.200Z,48.00
2018-08-22T15:44:41.308Z,47.90
2018-08-22T15:47:09.743Z,47.90
2018-08-22T15:49:37.766Z,47.90
2018-08-22T15:52:05.917Z,48.50
2018-08-22T15:54:34.007Z,48.50
2018-08-22T15:57:02.137Z,48.60
2018-08-22T15:59:30.252Z,48.40
2018-08-22T16:01:58.419Z,48.30
2018-08-22T16:04:26.501Z,47.90
2018-08-22T16:07:09.044Z,47.80
2018-08-22T16:09:37.163Z,47.80
2018-08-22T16:12:05.245Z,47.70
2018-08-22T16:14:33.379Z,48.00
2018-08-22T16:17:01.448Z,47.70
2018-08-22T16:19:29.555Z,46.90
2018-08-22T16:21:57.676Z,47.10
2018-08-22T16:24:27.423Z,45.90
2018-08-22T16:26:55.513Z,46.40
2018-08-22T16:29:23.607Z,46.40
2018-08-22T16:31:51.724Z,46.50
2018-08-22T16:34:19.827Z,46.70
2018-08-22T16:36:47.903Z,47.30
2018-08-22T16:39:30.595Z,47.50
2018-08-22T16:41:58.730Z,47.40
2018-08-22T16:44:26.815Z,47.60
2018-08-22T16:46:54.896Z,48.00
2018-08-22T16:49:23.039Z,48.20
2018-08-22T16:51:51.136Z,48.30
2018-08-22T16:54:19.235Z,48.70
2018-08-22T16:56:47.329Z,49.00
2018-08-22T16:59:15.856Z,49.10
2018-08-22T17:01:47.783Z,49.60
2018-08-22T17:04:15.979Z,49.70
2018-08-22T17:06:44.179Z,49.70
2018-08-22T17:09:12.375Z,49.80
2018-08-22T17:11:41.286Z,49.80
2018-08-22T17:14:09.743Z,49.90
2018-08-22T17:16:37.902Z,50.30
2018-08-22T17:19:06.048Z,50.40
2018-08-22T17:21:34.471Z,51.00
2018-08-22T17:24:02.752Z,51.00
2018-08-22T17:26:31.064Z,51.30
2018-08-22T17:29:00.044Z,51.20
2018-08-22T17:31:29.814Z,51.60
2018-08-22T17:33:59.232Z,52.90
2018-08-22T17:36:27.903Z,51.70
2018-08-22T17:38:57.231Z,51.40
2018-08-22T17:41:26.963Z,51.50
2018-08-22T17:44:06.847Z,51.80
2018-08-22T17:46:38.078Z,51.80
2018-08-22T17:49:06.302Z,51.70
2018-08-22T17:51:40.320Z,51.70
2018-08-22T17:54:08.451Z,51.60
2018-08-22T17:56:36.691Z,51.60
2018-08-22T17:59:04.839Z,51.60
2018-08-22T18:01:32.927Z,51.70
2018-08-22T18:04:01.016Z,51.90
2018-08-22T18:06:29.495Z,52.10
2018-08-22T18:08:57.596Z,52.10
2018-08-22T18:11:26.027Z,52.30
2018-08-22T18:13:56.902Z,52.50
2018-08-22T18:16:24.957Z,53.00
2018-08-22T18:18:53.102Z,53.40
2018-08-22T18:21:22.065Z,53.60
2018-08-22T18:23:54.545Z,54.00
2018-08-22T18:26:22.643Z,54.10
2018-08-22T18:28:50.742Z,54.30
2018-08-22T18:31:18.844Z,54.50
2018-08-22T18:33:57.939Z,54.60
2018-08-22T18:36:27.137Z,54.70
2018-08-22T18:39:13.262Z,54.80
2018-08-22T18:41:41.379Z,55.00
2018-08-22T18:44:09.459Z,55.10
2018-08-22T18:46:41.125Z,55.20
2018-08-22T18:49:09.290Z,54.40
2018-08-22T18:51:37.377Z,55.20
2018-08-22T18:54:05.601Z,55.50
2018-08-22T18:56:33.688Z,55.60
2018-08-22T18:59:13.240Z,55.70
2018-08-22T19:01:41.343Z,55.80
2018-08-22T19:04:09.487Z,55.90
2018-08-22T19:06:37.662Z,56.10
2018-08-22T19:09:06.253Z,56.20
2018-08-22T19:11:34.395Z,57.40
2018-08-22T19:14:02.507Z,58.00
2018-08-22T19:16:30.633Z,57.20
2018-08-22T19:18:58.720Z,57.20
2018-08-22T19:21:26.856Z,57.10
2018-08-22T19:24:00.409Z,57.10
2018-08-22T19:26:28.491Z,57.10
2018-08-22T19:28:59.243Z,57.20
2018-08-22T19:31:27.359Z,57.20
2018-08-22T19:33:55.459Z,57.10
2018-08-22T19:36:23.639Z,57.20
2018-08-22T19:38:51.755Z,57.30
2018-08-22T19:41:22.208Z,57.40
2018-08-22T19:43:50.319Z,57.60
2018-08-22T19:46:18.427Z,58.70
2018-08-22T19:48:46.536Z,58.40
2018-08-22T19:51:14.636Z,58.50
2018-08-22T19:53:54.963Z,58.40
2018-08-22T19:56:23.310Z,58.50
2018-08-22T19:58:51.404Z,58.50
2018-08-22T20:01:20.141Z,58.60
2018-08-22T20:03:54.620Z,58.70
2018-08-22T20:06:23.150Z,58.80
2018-08-22T20:08:52.844Z,59.00
2018-08-22T20:11:20.936Z,59.70
2018-08-22T20:13:55.355Z,59.10
2018-08-22T20:16:23.952Z,59.30
2018-08-22T20:18:54.599Z,59.30
2018-08-22T20:21:27.122Z,59.50
2018-08-22T20:23:55.812Z,60.50
2018-08-22T20:26:24.982Z,60.00
2018-08-22T20:28:54.023Z,60.50
2018-08-22T20:31:22.181Z,60.40
2018-08-22T20:34:03.681Z,61.40
2018-08-22T20:36:32.190Z,60.50
2018-08-22T20:39:03.879Z,60.70
2018-08-22T20:41:31.983Z,60.70
2018-08-22T20:44:00.107Z,60.80
2018-08-22T20:46:28.198Z,61.00
2018-08-22T20:48:56.335Z,61.10
2018-08-22T20:51:24.428Z,61.20
2018-08-22T20:53:57.787Z,61.50
2018-08-22T20:56:25.966Z,63.40
2018-08-22T20:58:54.089Z,63.50
2018-08-22T21:01:22.218Z,63.00
2018-08-22T21:03:50.992Z,62.80
2018-08-22T21:06:19.160Z,62.60
2018-08-22T21:08:48.220Z,62.50
2018-08-22T21:11:16.391Z,62.70
2018-08-22T21:13:44.539Z,62.60
2018-08-22T21:16:12.649Z,62.70
2018-08-22T21:18:41.729Z,62.70
2018-08-22T21:21:14.861Z,62.30
2018-08-22T21:23:42.958Z,62.80
2018-08-22T21:26:12.399Z,62.90
2018-08-22T21:28:43.334Z,63.00
2018-08-22T21:31:11.463Z,63.00
2018-08-22T21:33:39.593Z,63.80
2018-08-22T21:36:07.856Z,64.20
2018-08-22T21:38:35.955Z,63.70
2018-08-22T21:41:04.059Z,63.80
2018-08-22T21:43:32.177Z,63.70
2018-08-22T21:46:00.443Z,63.80
2018-08-22T21:48:28.547Z,63.10
2018-08-22T21:50:56.671Z,63.80
2018-08-22T21:53:24.815Z,63.90
2018-08-22T21:55:53.404Z,64.00
2018-08-22T21:58:21.523Z,64.10
2018-08-22T22:00:49.666Z,64.10
2018-08-22T22:03:23.325Z,64.00
2018-08-22T22:05:57.005Z,65.60
2018-08-22T22:08:25.148Z,65.70
2018-08-22T22:11:00.359Z,65.20
2018-08-22T22:13:28.684Z,65.20
2018-08-22T22:15:58.692Z,64.70
2018-08-22T22:18:26.818Z,64.70
2018-08-22T22:21:06.926Z,64.50
2018-08-22T22:23:40.896Z,64.50
2018-08-22T22:26:09.053Z,64.60
2018-08-22T22:28:38.467Z,64.70
2018-08-22T22:31:09.515Z,64.70
2018-08-22T22:33:41.865Z,64.90
2018-08-22T22:36:10.064Z,64.50
2018-08-22T22:38:38.143Z,65.10
2018-08-22T22:41:06.243Z,65.20
2018-08-22T22:43:34.356Z,67.10
2018-08-22T22:46:02.467Z,66.70
2018-08-22T22:48:36.342Z,66.30
2018-08-22T22:51:04.472Z,66.20
2018-08-22T22:53:32.605Z,66.00
2018-08-22T22:56:00.702Z,66.00
2018-08-22T22:58:28.794Z,65.80
2018-08-22T23:00:56.901Z,65.80
2018-08-22T23:03:24.984Z,65.70
2018-08-22T23:05:53.060Z,65.90
2018-08-22T23:08:21.147Z,65.80
2018-08-22T23:10:49.218Z,65.70
2018-08-22T23:13:17.311Z,65.80
2018-08-22T23:15:45.419Z,66.70
2018-08-22T23:18:13.506Z,65.90
2018-08-22T23:20:44.154Z,67.50
2018-08-22T23:23:27.075Z,67.60
2018-08-22T23:25:56.598Z,67.20
2018-08-22T23:28:24.666Z,66.70
2018-08-22T23:30:52.769Z,67.50
2018-08-22T23:33:20.811Z,66.70
2018-08-22T23:35:48.898Z,66.70
2018-08-22T23:38:35.362Z,66.30
2018-08-22T23:41:03.662Z,66.50
2018-08-22T23:44:05.594Z,66.50
2018-08-22T23:46:33.668Z,67.10
2018-08-22T23:49:01.743Z,66.50
2018-08-22T23:51:29.822Z,66.70
2018-08-22T23:53:59.186Z,67.50
2018-08-22T23:56:28.430Z,66.90
2018-08-22T23:58:57.109Z,68.60
